createdAt,value
2023-09-10T00:05:00.616Z,5.07
2023-09-10T00:15:05.431Z,5.50
2023-09-10T00:25:08.641Z,5.20
2023-09-10T00:35:12.760Z,5.10
2023-09-10T00:45:15.534Z,4.70
2023-09-10T00:55:21.007Z,5.85
2023-09-10T01:05:23.768Z,6.03
2023-09-10T01:15:32.381Z,5.70
2023-09-10T01:25:36.834Z,5.60
2023-09-10T01:35:45.393Z,5.68
2023-09-10T01:45:50.708Z,5.72
2023-09-10T01:55:53.740Z,5.72
2023-09-10T02:05:59.873Z,5.72
2023-09-10T02:16:02.605Z,5.72
2023-09-10T02:26:06.813Z,5.57
2023-09-10T02:36:09.508Z,5.32
2023-09-10T02:46:15.249Z,4.85
2023-09-10T02:56:18.009Z,5.28
2023-09-10T03:06:22.115Z,5.20
2023-09-10T03:16:25.894Z,5.28
2023-09-10T03:26:29.933Z,5.35
2023-09-10T03:36:32.610Z,5.43
2023-09-10T03:46:36.681Z,5.53
2023-09-10T03:56:39.426Z,5.97
2023-09-10T04:06:43.555Z,5.85
2023-09-10T04:16:46.442Z,6.30
2023-09-10T04:26:50.557Z,5.85
2023-09-10T04:36:53.328Z,5.47
2023-09-10T04:46:57.471Z,5.72
2023-09-10T04:57:00.936Z,6.43
2023-09-10T05:07:05.354Z,5.85
2023-09-10T05:17:08.129Z,5.20
2023-09-10T05:27:12.320Z,6.60
2023-09-10T05:37:15.396Z,6.18
2023-09-10T05:47:21.165Z,7.00
2023-09-10T05:57:23.952Z,7.22
2023-09-10T06:07:27.990Z,7.00
2023-09-10T06:17:30.697Z,6.80
2023-09-10T06:27:34.803Z,6.05
2023-09-10T06:37:39.477Z,6.35
2023-09-10T06:47:43.589Z,5.90
2023-09-10T06:57:46.298Z,6.20
2023-09-10T07:07:54.400Z,5.93
2023-09-10T07:17:57.302Z,5.82
2023-09-10T07:28:01.396Z,5.88
2023-09-10T07:38:04.295Z,5.75
2023-09-10T07:48:08.730Z,5.25
2023-09-10T07:58:11.661Z,6.43
2023-09-10T08:08:15.889Z,6.85
2023-09-10T08:18:18.683Z,5.05
2023-09-10T08:28:22.789Z,4.97
2023-09-10T08:38:25.854Z,4.68
2023-09-10T08:48:30.993Z,5.25
2023-09-10T08:58:34.622Z,4.68
2023-09-10T09:08:39.000Z,5.32
2023-09-10T09:18:42.340Z,4.95
2023-09-10T09:28:47.097Z,5.35
2023-09-10T09:38:51.199Z,4.70
2023-09-10T09:48:55.457Z,4.82
2023-09-10T09:58:59.318Z,4.57
2023-09-10T10:09:04.121Z,3.95
2023-09-10T10:19:07.442Z,4.25
2023-09-10T10:29:12.246Z,4.20
2023-09-10T10:39:18.501Z,3.58
2023-09-10T10:49:23.795Z,3.42
2023-09-10T10:59:27.307Z,3.70
2023-09-10T11:09:38.782Z,4.13
2023-09-10T11:19:45.806Z,3.47
2023-09-10T11:30:11.266Z,3.80
2023-09-10T11:40:14.697Z,3.40
2023-09-10T11:50:24.627Z,3.35
2023-09-10T12:00:27.684Z,3.22
2023-09-10T12:10:32.041Z,3.58
2023-09-10T12:20:37.461Z,3.60
2023-09-10T12:30:42.092Z,3.72
2023-09-10T12:50:50.063Z,3.83
2023-09-10T13:00:57.089Z,3.90
2023-09-10T13:11:04.112Z,3.40
2023-09-10T13:21:07.041Z,3.30
2023-09-10T13:31:11.363Z,3.55
2023-09-10T13:41:14.174Z,3.30
2023-09-10T13:51:18.314Z,3.70
2023-09-10T14:01:21.221Z,3.75
2023-09-10T14:11:25.673Z,3.60
2023-09-10T14:21:28.520Z,3.30
2023-09-10T14:31:32.659Z,3.30
2023-09-10T14:41:35.477Z,3.33
2023-09-10T14:51:39.545Z,3.63
2023-09-10T15:01:42.364Z,3.20
2023-09-10T15:11:46.462Z,3.45
2023-09-10T15:21:49.185Z,3.30
2023-09-10T15:31:53.332Z,3.47
2023-09-10T15:41:56.217Z,3.42
2023-09-10T15:52:00.370Z,3.72
2023-09-10T16:02:16.689Z,3.70
2023-09-10T16:12:21.050Z,4.07
2023-09-10T16:22:29.922Z,4.30
2023-09-10T16:32:34.388Z,3.80
2023-09-10T16:42:37.264Z,4.00
2023-09-10T16:52:41.810Z,4.10
2023-09-10T17:02:44.847Z,4.18
2023-09-10T17:12:50.504Z,4.57
2023-09-10T17:22:53.365Z,4.05
2023-09-10T17:32:59.089Z,4.05
2023-09-10T17:43:02.283Z,5.43
2023-09-10T17:53:06.548Z,7.05
2023-09-10T18:03:09.442Z,4.22
2023-09-10T18:13:13.676Z,3.80
2023-09-10T18:23:16.781Z,3.88
2023-09-10T18:33:20.892Z,3.80
2023-09-10T18:43:23.788Z,3.65
2023-09-10T18:53:27.978Z,4.00
2023-09-10T19:03:30.994Z,3.72
2023-09-10T19:13:35.402Z,4.00
2023-09-10T19:23:40.442Z,3.67
2023-09-10T19:33:44.862Z,4.10
2023-09-10T19:43:47.663Z,3.60
2023-09-10T19:53:53.626Z,3.90
2023-09-10T20:03:56.777Z,4.05
2023-09-10T20:14:01.405Z,4.78
2023-09-10T20:24:04.355Z,5.03
2023-09-10T20:34:08.432Z,4.63
2023-09-10T20:44:11.194Z,4.50
2023-09-10T20:54:15.282Z,4.40
2023-09-10T21:04:18.462Z,4.65
2023-09-10T21:14:41.364Z,4.75
2023-09-10T21:24:44.191Z,4.70
2023-09-10T21:34:48.257Z,5.13
2023-09-10T21:44:51.063Z,5.00
2023-09-10T21:54:55.332Z,5.18
2023-09-10T22:04:59.160Z,4.80
2023-09-10T22:15:06.682Z,5.15
2023-09-10T22:25:14.491Z,5.60
2023-09-10T22:35:19.171Z,5.95
2023-09-10T22:45:21.951Z,6.13
2023-09-10T22:55:26.088Z,6.07
2023-09-10T23:05:28.873Z,6.00
2023-09-10T23:15:33.134Z,5.93
2023-09-10T23:25:35.948Z,5.80
2023-09-10T23:35:40.306Z,6.18
2023-09-10T23:45:43.303Z,5.35
2023-09-10T23:55:48.523Z,5.80
